Time;durP1;ratioP1;P1;durP2;ratioP2;P2;SDS_P1;SDS_P2;PMS_P1;PMS_P2;Temp;Humidity;BMP_temperature;BMP_pressure;BME280_temperature;BME280_humidity;BME280_pressure;Samples;Min_cycle;Max_cycle;Signal;HPM_P1;HPM_P2
2022/01/03 00:02:19;;;;;;;;;;;;;;;9.91;69.22;99705.50;7364101;19;20663;-53
2022/01/03 00:04:45;;;;;;;;;;;;;;;9.92;69.14;99706.34;7364874;19;19918;-53
2022/01/03 00:07:11;;;;;;;;;;;;;;;9.93;69.00;99714.09;7366358;19;19974;-50
2022/01/03 00:09:36;;;;;;;;;;;;;;;9.94;68.80;99702.78;7362768;19;19930;-53
2022/01/03 00:12:02;;;;;;;;;;;;;;;9.94;68.99;99704.56;7361621;19;19919;-51
2022/01/03 00:14:28;;;;;;;;;;;;;;;9.96;68.93;99703.56;7368768;19;20009;-52
2022/01/03 00:16:53;;;;;;;;;;;;;;;9.96;68.74;99700.97;7369175;19;19951;-53
2022/01/03 00:19:18;;;;;;;;;;;;;;;9.96;68.49;99707.94;7359655;19;19926;-55
2022/01/03 00:21:45;;;;;;;;;;;;;;;9.96;68.71;99695.75;7369283;19;19926;-49
2022/01/03 00:24:10;;;;;;;;;;;;;;;9.96;68.82;99706.19;7362829;19;19947;-53
2022/01/03 00:26:37;;;;;;;;;;;;;;;9.95;68.73;99701.88;7366346;19;19926;-51
2022/01/03 00:29:10;;;;;;;;;;;;;;;9.96;68.60;99707.94;7362739;19;20311;-49
2022/01/03 00:31:39;;;;;;;;;;;;;;;9.96;68.75;99707.94;7364364;19;19915;-52
2022/01/03 00:34:05;;;;;;;;;;;;;;;9.95;68.89;99701.88;7363776;19;19925;-54
2022/01/03 00:36:31;;;;;;;;;;;;;;;9.95;68.65;99701.88;7364156;19;19919;-52
2022/01/03 00:38:57;;;;;;;;;;;;;;;9.94;68.69;99687.16;7359531;19;19919;-52
2022/01/03 00:41:22;;;;;;;;;;;;;;;9.94;68.46;99694.13;7367523;19;19918;-50
2022/01/03 00:43:50;;;;;;;;;;;;;;;9.92;68.46;99701.97;7363227;19;19926;-51
2022/01/03 00:46:16;;;;;;;;;;;;;;;9.90;68.45;99690.75;7358872;19;19910;-54
2022/01/03 00:48:42;;;;;;;;;;;;;;;9.89;68.81;99696.91;7363617;19;20430;-53
2022/01/03 00:51:08;;;;;;;;;;;;;;;9.87;68.51;99703.91;7358001;19;19911;-51
2022/01/03 00:53:33;;;;;;;;;;;;;;;9.85;68.81;99700.50;7362826;19;19921;-52
2022/01/03 00:56:04;;;;;;;;;;;;;;;9.83;68.85;99687.53;7365990;19;20716;-50
2022/01/03 00:58:55;;;;;;;;;;;;;;;9.82;68.69;99690.19;7360519;19;19907;-53
2022/01/03 01:01:22;;;;;;;;;;;;;;;9.79;68.61;99679.88;7259559;19;2004533;-51
2022/01/03 01:03:52;;;;;;;;;;;;;;;9.78;68.71;99684.25;7364449;19;19925;-49
2022/01/03 01:06:19;;;;;;;;;;;;;;;9.78;69.04;99678.16;7367786;19;19929;-55
2022/01/03 01:08:45;;;;;;;;;;;;;;;9.78;69.17;99678.16;7364037;19;19926;-52
2022/01/03 01:11:10;;;;;;;;;;;;;;;9.78;69.16;99675.53;7362972;19;19940;-52
2022/01/03 01:13:36;;;;;;;;;;;;;;;9.78;68.96;99667.72;7362187;19;20363;-52
2022/01/03 01:16:06;;;;;;;;;;;;;;;9.78;68.60;99667.72;7367541;19;20460;-53
2022/01/03 01:18:35;;;;;;;;;;;;;;;9.78;68.67;99662.50;7361821;19;19965;-52
2022/01/03 01:21:01;;;;;;;;;;;;;;;9.78;68.55;99662.50;7361822;19;20005;-54
2022/01/03 01:23:26;;;;;;;;;;;;;;;9.78;68.68;99667.72;7364986;19;19948;-50
2022/01/03 01:28:17;;;;;;;;;;;;;;;9.77;68.29;99666.88;7366033;19;19915;-51
2022/01/03 01:30:43;;;;;;;;;;;;;;;9.77;68.31;99660.81;7358695;19;19917;-55
2022/01/03 01:33:12;;;;;;;;;;;;;;;9.76;68.48;99669.53;7364138;19;19957;-53
2022/01/03 01:36:10;;;;;;;;;;;;;;;9.77;68.51;99660.81;7364504;19;19918;-52
2022/01/03 01:38:37;;;;;;;;;;;;;;;9.76;68.29;99672.16;7260207;19;2004877;-52
2022/01/03 01:41:05;;;;;;;;;;;;;;;9.76;68.47;99666.94;7361992;19;19922;-54
2022/01/03 01:43:33;;;;;;;;;;;;;;;9.75;68.39;99667.84;7362358;19;19926;-50
2022/01/03 01:46:00;;;;;;;;;;;;;;;9.74;68.16;99668.75;7362655;19;20247;-51
2022/01/03 01:48:26;;;;;;;;;;;;;;;9.73;67.91;99673.13;7363316;19;19930;-54
2022/01/03 01:50:51;;;;;;;;;;;;;;;9.71;68.26;99667.09;7362568;19;19935;-55
2022/01/03 01:53:22;;;;;;;;;;;;;;;9.72;67.84;99675.78;7365108;19;19922;-51
2022/01/03 01:55:48;;;;;;;;;;;;;;;9.70;68.16;99664.56;7364521;19;20415;-54
2022/01/03 01:58:29;;;;;;;;;;;;;;;9.68;68.02;99671.56;7362893;19;19919;-51
2022/01/03 02:01:02;;;;;;;;;;;;;;;9.67;67.99;99675.09;7363835;19;20247;-50
2022/01/03 02:03:39;;;;;;;;;;;;;;;9.66;67.93;99679.44;7355704;19;19919;-50
2022/01/03 02:06:22;;;;;;;;;;;;;;;9.67;68.13;99685.50;7361201;19;19972;-57
2022/01/03 02:09:28;;;;;;;;;;;;;;;9.66;68.24;99681.22;7363266;19;19918;-55
2022/01/03 02:11:55;;;;;;;;;;;;;;;9.66;68.18;99673.38;7257415;19;2004045;-56
2022/01/03 02:14:21;;;;;;;;;;;;;;;9.66;67.89;99689.03;7357743;19;19926;-52
2022/01/03 02:16:47;;;;;;;;;;;;;;;9.67;67.95;99669.88;7360627;19;19926;-52
2022/01/03 02:19:13;;;;;;;;;;;;;;;9.68;68.04;99674.16;7360687;19;19925;-54
2022/01/03 02:21:38;;;;;;;;;;;;;;;9.69;68.35;99676.75;7364317;19;20254;-49
2022/01/03 02:24:04;;;;;;;;;;;;;;;9.72;68.12;99673.16;7363356;19;19940;-57
2022/01/03 02:26:30;;;;;;;;;;;;;;;9.74;68.15;99676.59;7361687;19;19925;-53
2022/01/03 02:28:55;;;;;;;;;;;;;;;9.76;68.03;99667.78;7363937;19;19918;-53
2022/01/03 02:31:22;;;;;;;;;;;;;;;9.77;67.91;99679.06;7356317;19;19925;-54
2022/01/03 02:33:47;;;;;;;;;;;;;;;9.78;67.57;99662.50;7361042;19;19951;-50
2022/01/03 02:36:12;;;;;;;;;;;;;;;9.78;67.56;99663.38;7354037;19;19967;-54
2022/01/03 02:38:38;;;;;;;;;;;;;;;9.78;67.65;99667.72;7364402;19;19935;-49
2022/01/03 02:41:03;;;;;;;;;;;;;;;9.79;67.50;99661.63;7363300;19;19923;-55
2022/01/03 02:43:28;;;;;;;;;;;;;;;9.79;67.41;99659.03;7367714;19;20031;-50
2022/01/03 02:45:54;;;;;;;;;;;;;;;9.79;67.66;99643.38;7365832;19;19963;-53
2022/01/03 02:48:23;;;;;;;;;;;;;;;9.78;67.61;99658.16;7364280;19;19922;-53
2022/01/03 02:50:48;;;;;;;;;;;;;;;9.77;67.03;99655.59;7365214;19;19918;-51
2022/01/03 02:53:14;;;;;;;;;;;;;;;9.75;67.49;99665.25;7368188;19;19983;-55
2022/01/03 02:55:39;;;;;;;;;;;;;;;9.74;67.13;99648.75;7365046;19;19943;-54
2022/01/03 02:58:08;;;;;;;;;;;;;;;9.72;67.38;99641.88;7354028;19;19951;-55
2022/01/03 03:00:45;;;;;;;;;;;;;;;9.69;67.33;99653.28;7366870;19;19935;-53
2022/01/03 03:03:11;;;;;;;;;;;;;;;9.67;67.00;99647.25;7367183;19;19947;-52
2022/01/03 03:05:37;;;;;;;;;;;;;;;9.66;66.98;99642.09;7367118;19;19935;-54
2022/01/03 03:08:02;;;;;;;;;;;;;;;9.62;67.22;99650.03;7364689;19;19923;-51
2022/01/03 03:10:27;;;;;;;;;;;;;;;9.61;67.33;99645.72;7367437;19;20867;-51
2022/01/03 03:12:53;;;;;;;;;;;;;;;9.59;66.96;99644.09;7365497;19;19922;-55
2022/01/03 03:15:18;;;;;;;;;;;;;;;9.57;67.42;99638.06;7362267;19;20328;-54
2022/01/03 03:17:44;;;;;;;;;;;;;;;9.56;67.02;99641.59;7369796;19;20410;-57
2022/01/03 03:20:11;;;;;;;;;;;;;;;9.55;67.35;99642.50;7367616;19;19994;-54
2022/01/03 03:22:37;;;;;;;;;;;;;;;9.54;67.26;99632.97;7366343;19;21410;-53
2022/01/03 03:25:05;;;;;;;;;;;;;;;9.53;67.11;99658.19;7344243;19;19995;-52
2022/01/03 03:27:30;;;;;;;;;;;;;;;9.52;67.08;99630.41;7359232;19;19934;-56
2022/01/03 03:29:56;;;;;;;;;;;;;;;9.52;67.00;99624.34;7367679;19;19931;-54
2022/01/03 03:32:21;;;;;;;;;;;;;;;9.49;67.00;99633.13;7366054;19;19914;-53
2022/01/03 03:34:47;;;;;;;;;;;;;;;9.50;67.06;99615.75;7366137;19;19930;-57
2022/01/03 03:37:13;;;;;;;;;;;;;;;9.49;67.08;99607.06;7368954;19;20406;-54
2022/01/03 03:39:39;;;;;;;;;;;;;;;9.49;67.31;99614.91;7369804;19;19950;-51
2022/01/03 03:42:05;;;;;;;;;;;;;;;9.48;66.89;99613.19;7361821;19;19927;-56
2022/01/03 03:44:30;;;;;;;;;;;;;;;9.48;67.09;99604.50;7367922;19;19922;-52
2022/01/03 03:46:56;;;;;;;;;;;;;;;9.48;67.12;99613.19;7369810;19;19923;-50
2022/01/03 03:49:21;;;;;;;;;;;;;;;9.47;67.12;99600.22;7367247;19;20011;-53
2022/01/03 03:51:47;;;;;;;;;;;;;;;9.47;67.13;99603.66;7361673;19;20324;-54
2022/01/03 03:54:12;;;;;;;;;;;;;;;9.47;67.60;99601.06;7366451;19;19977;-56
2022/01/03 03:56:37;;;;;;;;;;;;;;;9.46;67.35;99598.50;7363593;19;19925;-50
2022/01/03 03:59:02;;;;;;;;;;;;;;;9.45;67.56;99597.66;7364345;19;19923;-54
2022/01/03 04:01:28;;;;;;;;;;;;;;;9.40;67.27;99581.34;7367490;19;19923;-51
2022/01/03 04:03:53;;;;;;;;;;;;;;;9.44;67.73;99590.75;7363703;19;19955;-52
2022/01/03 04:06:19;;;;;;;;;;;;;;;9.44;67.64;99588.16;7361835;19;19927;-52
2022/01/03 04:08:45;;;;;;;;;;;;;;;9.45;67.58;99592.44;7364428;19;19939;-52
2022/01/03 04:11:13;;;;;;;;;;;;;;;9.45;67.76;99582.03;7364256;19;19936;-51
2022/01/03 04:13:38;;;;;;;;;;;;;;;9.45;67.76;99595.06;7369230;19;19919;-49
2022/01/03 04:16:03;;;;;;;;;;;;;;;9.45;67.48;99591.59;7368228;19;19915;-53
2022/01/03 04:18:29;;;;;;;;;;;;;;;9.46;67.43;99588.09;7359423;19;19928;-52
2022/01/03 04:20:54;;;;;;;;;;;;;;;9.46;67.21;99582.88;7367689;19;19999;-51
2022/01/03 04:23:19;;;;;;;;;;;;;;;9.46;67.19;99599.34;7362560;19;20450;-55
2022/01/03 04:25:45;;;;;;;;;;;;;;;9.46;67.50;99586.31;7368329;19;19924;-52
2022/01/03 04:28:11;;;;;;;;;;;;;;;9.45;67.62;99597.66;7368409;19;19911;-52
2022/01/03 04:30:36;;;;;;;;;;;;;;;9.45;67.49;99605.47;7366961;19;19922;-55
2022/01/03 04:33:02;;;;;;;;;;;;;;;9.44;67.49;99605.53;7368428;19;20532;-49
2022/01/03 04:35:27;;;;;;;;;;;;;;;9.43;67.30;99596.88;7366497;19;19927;-53
2022/01/03 04:37:52;;;;;;;;;;;;;;;9.42;67.13;99582.13;7367220;19;19978;-49
2022/01/03 04:40:17;;;;;;;;;;;;;;;9.41;67.07;99585.66;7365474;19;19911;-54
2022/01/03 04:42:43;;;;;;;;;;;;;;;9.41;67.09;99577.81;7368474;19;20332;-56
2022/01/03 04:45:08;;;;;;;;;;;;;;;9.40;67.11;99586.56;7368811;19;19944;-51
2022/01/03 04:47:33;;;;;;;;;;;;;;;9.40;67.17;99583.09;7368998;19;19918;-52
2022/01/03 04:49:58;;;;;;;;;;;;;;;9.39;67.14;99582.25;7367487;19;20273;-51
2022/01/03 04:52:24;;;;;;;;;;;;;;;9.38;67.17;99585.78;7369513;19;19943;-47
2022/01/03 04:54:49;;;;;;;;;;;;;;;9.39;67.11;99587.47;7369675;19;19946;-50
2022/01/03 04:57:14;;;;;;;;;;;;;;;9.37;67.50;99573.63;7362186;19;19922;-54
2022/01/03 04:59:39;;;;;;;;;;;;;;;9.36;67.20;99578.00;7368704;19;20356;-53
2022/01/03 05:02:05;;;;;;;;;;;;;;;9.35;67.56;99575.44;7367151;19;19926;-50
2022/01/03 05:04:30;;;;;;;;;;;;;;;9.36;67.64;99571.94;7362913;19;19921;-51
2022/01/03 05:06:56;;;;;;;;;;;;;;;9.34;67.38;99558.13;7367108;19;19953;-52
2022/01/03 05:09:21;;;;;;;;;;;;;;;9.36;67.75;99562.34;7364425;19;19915;-48
2022/01/03 05:11:46;;;;;;;;;;;;;;;9.39;67.42;99556.19;7367932;19;19927;-51
2022/01/03 05:14:11;;;;;;;;;;;;;;;9.41;67.40;99559.59;7368661;19;19922;-50
2022/01/03 05:16:37;;;;;;;;;;;;;;;9.44;67.48;99549.06;7360014;19;19979;-53
2022/01/03 05:19:02;;;;;;;;;;;;;;;9.47;67.49;99559.34;7368650;19;19926;-49
2022/01/03 05:21:28;;;;;;;;;;;;;;;9.47;67.69;99548.94;7365608;19;19939;-54
2022/01/03 05:23:53;;;;;;;;;;;;;;;9.49;67.48;99551.50;7362420;19;19947;-52
2022/01/03 05:26:18;;;;;;;;;;;;;;;9.48;67.00;99555.88;7367485;19;19922;-54
2022/01/03 05:28:45;;;;;;;;;;;;;;;9.48;67.57;99555.88;7366806;19;19919;-53
2022/01/03 05:31:12;;;;;;;;;;;;;;;9.41;67.51;99545.72;7367775;19;19931;-55
2022/01/03 05:33:37;;;;;;;;;;;;;;;9.47;67.25;99538.50;7364317;19;20012;-49
2022/01/03 05:36:03;;;;;;;;;;;;;;;9.47;67.67;99548.94;7364539;19;19994;-49
2022/01/03 05:38:28;;;;;;;;;;;;;;;9.48;67.49;99545.44;7364779;19;19965;-55
2022/01/03 05:40:53;;;;;;;;;;;;;;;9.49;67.13;99557.56;7367169;19;19923;-50
2022/01/03 05:43:18;;;;;;;;;;;;;;;9.49;67.64;99544.53;7369058;19;19919;-56
2022/01/03 05:45:44;;;;;;;;;;;;;;;9.49;67.19;99534.13;7368412;19;20554;-51
2022/01/03 05:48:09;;;;;;;;;;;;;;;9.51;67.32;99534.91;7364593;19;19922;-52
2022/01/03 05:50:34;;;;;;;;;;;;;;;9.51;67.32;99545.31;7365789;19;19982;-52
2022/01/03 05:52:59;;;;;;;;;;;;;;;9.52;67.12;99540.94;7365794;19;19930;-50
2022/01/03 05:55:25;;;;;;;;;;;;;;;9.51;67.45;99547.94;7368280;19;19918;-57
2022/01/03 05:57:50;;;;;;;;;;;;;;;9.49;67.03;99547.13;7366700;19;20361;-53
2022/01/03 06:00:17;;;;;;;;;;;;;;;9.49;67.01;99551.50;7367192;19;19986;-56
2022/01/03 06:02:43;;;;;;;;;;;;;;;9.49;67.37;99546.28;7366702;19;19918;-56
2022/01/03 06:05:31;;;;;;;;;;;;;;;9.48;67.06;99529.81;7366311;19;19929;-53
2022/01/03 06:07:57;;;;;;;;;;;;;;;9.48;67.36;99545.44;7362542;19;19922;-53
2022/01/03 06:10:22;;;;;;;;;;;;;;;9.49;67.57;99546.28;7362835;19;20692;-54
2022/01/03 06:12:48;;;;;;;;;;;;;;;9.49;67.19;99548.91;7367240;19;20275;-51
2022/01/03 06:15:14;;;;;;;;;;;;;;;9.49;67.25;99557.56;7366209;19;19911;-51
2022/01/03 06:17:40;;;;;;;;;;;;;;;9.50;67.39;99548.00;7365970;19;20370;-53
2022/01/03 06:20:07;;;;;;;;;;;;;;;9.49;67.58;99526.28;7372339;19;19922;-52
2022/01/03 06:22:32;;;;;;;;;;;;;;;9.49;67.60;99539.31;7372957;19;19926;-49
2022/01/03 06:24:57;;;;;;;;;;;;;;;9.47;67.76;99548.94;7372296;19;20748;-57
2022/01/03 06:27:22;;;;;;;;;;;;;;;9.46;67.87;99547.25;7370896;19;19925;-49
2022/01/03 06:29:48;;;;;;;;;;;;;;;9.44;67.88;99533.44;7369655;19;19924;-52
2022/01/03 06:32:13;;;;;;;;;;;;;;;9.42;68.03;99548.25;7370110;19;19923;-50
2022/01/03 06:34:38;;;;;;;;;;;;;;;9.40;68.26;99549.22;7374194;19;19922;-52
2022/01/03 06:37:03;;;;;;;;;;;;;;;9.36;68.26;99551.09;7372427;19;19958;-56
2022/01/03 06:39:28;;;;;;;;;;;;;;;9.32;68.37;99539.91;7373809;19;19946;-56
2022/01/03 06:41:54;;;;;;;;;;;;;;;9.29;68.36;99534.84;7372054;19;19918;-55
2022/01/03 06:44:19;;;;;;;;;;;;;;;9.26;68.80;99532.34;7371751;19;19922;-52
2022/01/03 06:46:44;;;;;;;;;;;;;;;9.25;69.25;99538.44;7371693;19;20657;-51
2022/01/03 06:49:10;;;;;;;;;;;;;;;9.24;69.05;99541.13;7369325;19;19922;-56
2022/01/03 06:51:35;;;;;;;;;;;;;;;9.21;69.22;99542.06;7372436;19;19963;-51
2022/01/03 06:54:05;;;;;;;;;;;;;;;9.21;69.20;99551.63;7372767;19;19951;-56
2022/01/03 06:56:30;;;;;;;;;;;;;;;9.19;69.56;99569.09;7367355;19;19947;-51
2022/01/03 06:58:55;;;;;;;;;;;;;;;9.15;69.87;99536.22;7368405;19;19974;-51
2022/01/03 07:01:21;;;;;;;;;;;;;;;9.14;69.74;99539.75;7367713;19;19915;-49
2022/01/03 07:03:46;;;;;;;;;;;;;;;9.13;69.73;99533.69;7372337;19;20291;-54
2022/01/03 07:06:11;;;;;;;;;;;;;;;9.13;69.70;99530.25;7368336;19;19923;-51
2022/01/03 07:08:36;;;;;;;;;;;;;;;9.12;69.88;99525.91;7366620;19;20401;-54
2022/01/03 07:11:02;;;;;;;;;;;;;;;9.09;69.76;99532.94;7368621;19;19926;-55
2022/01/03 07:13:29;;;;;;;;;;;;;;;9.07;69.79;99539.97;7372687;19;19935;-48
2022/01/03 07:18:57;;;;;;;;;;;;;;;9.05;70.49;99536.56;7369165;19;20335;-51
2022/01/03 07:21:29;;;;;;;;;;;;;;;9.05;70.72;99525.28;7366914;19;19911;-56
2022/01/03 07:23:55;;;;;;;;;;;;;;;9.03;70.70;99517.53;7372301;19;20328;-55
2022/01/03 07:26:21;;;;;;;;;;;;;;;9.01;70.36;99534.09;7370779;19;19942;-48
2022/01/03 07:28:46;;;;;;;;;;;;;;;8.98;70.56;99518.59;7366151;19;19918;-53
2022/01/03 07:31:12;;;;;;;;;;;;;;;8.95;70.94;99513.50;7370057;19;19919;-57
2022/01/03 07:33:37;;;;;;;;;;;;;;;8.92;70.94;99511.88;7367655;19;19950;-50
2022/01/03 07:36:02;;;;;;;;;;;;;;;8.90;71.34;99500.63;7370356;19;19982;-49
2022/01/03 07:38:27;;;;;;;;;;;;;;;8.88;70.90;99505.06;7367262;19;19923;-52
2022/01/03 07:40:53;;;;;;;;;;;;;;;8.88;71.15;99510.25;7365756;19;20702;-53
2022/01/03 07:43:19;;;;;;;;;;;;;;;8.87;71.00;99503.38;7366031;19;20558;-51
2022/01/03 07:45:44;;;;;;;;;;;;;;;8.82;71.45;99492.25;7371454;19;19978;-54
2022/01/03 07:48:09;;;;;;;;;;;;;;;8.88;71.53;99505.06;7366177;19;19918;-51
2022/01/03 07:50:34;;;;;;;;;;;;;;;8.90;71.20;99507.59;7369548;19;19922;-49
2022/01/03 07:53:00;;;;;;;;;;;;;;;8.92;71.07;99514.47;7367665;19;19950;-52
2022/01/03 07:55:26;;;;;;;;;;;;;;;8.93;71.44;99526.56;7364358;19;19921;-54
2022/01/03 07:57:52;;;;;;;;;;;;;;;8.97;71.67;99516.88;7366209;19;19922;-52
2022/01/03 08:00:17;;;;;;;;;;;;;;;8.98;71.68;99506.44;7370302;19;19938;-52
2022/01/03 08:02:43;;;;;;;;;;;;;;;9.00;71.33;99533.25;7368429;19;20948;-53
2022/01/03 08:05:10;;;;;;;;;;;;;;;9.01;71.49;99508.91;7365381;19;19922;-50
2022/01/03 08:07:36;;;;;;;;;;;;;;;9.01;71.40;99508.91;7364284;19;19956;-56
2022/01/03 08:10:04;;;;;;;;;;;;;;;9.00;71.03;99517.63;7365693;19;19927;-53
2022/01/03 08:12:29;;;;;;;;;;;;;;;8.98;71.20;99531.63;7367204;19;19930;-47
2022/01/03 08:14:54;;;;;;;;;;;;;;;8.97;71.19;99542.91;7367495;19;19930;-52
2022/01/03 08:17:19;;;;;;;;;;;;;;;8.94;71.69;99528.28;7367452;19;19951;-52
2022/01/03 08:19:45;;;;;;;;;;;;;;;8.94;71.86;99556.91;7360979;19;20292;-49
2022/01/03 08:22:10;;;;;;;;;;;;;;;8.94;71.83;99543.91;7365043;19;20669;-53
2022/01/03 08:24:35;;;;;;;;;;;;;;;8.93;72.04;99552.63;7368744;19;19939;-55
2022/01/03 08:27:00;;;;;;;;;;;;;;;8.93;71.77;99555.22;7362712;19;20520;-54
2022/01/03 08:29:26;;;;;;;;;;;;;;;8.91;72.03;99559.59;7368879;19;19941;-52
2022/01/03 08:31:51;;;;;;;;;;;;;;;8.90;72.00;99563.13;7369806;19;19930;-52
2022/01/03 08:34:16;;;;;;;;;;;;;;;8.88;71.95;99564.94;7361741;19;20612;-51
2022/01/03 08:36:41;;;;;;;;;;;;;;;8.90;72.47;99570.09;7369848;19;19926;-50
2022/01/03 08:39:09;;;;;;;;;;;;;;;8.91;72.28;99575.22;7363286;19;20586;-53
2022/01/03 08:41:34;;;;;;;;;;;;;;;8.92;72.25;99566.53;7356663;19;19951;-51
2022/01/03 08:43:59;;;;;;;;;;;;;;;8.94;72.12;99582.94;7369891;19;20624;-51
2022/01/03 08:46:24;;;;;;;;;;;;;;;8.94;72.45;99577.75;7365423;19;20671;-54
2022/01/03 08:48:51;;;;;;;;;;;;;;;8.96;72.46;99588.09;7363946;19;19923;-51
2022/01/03 08:51:16;;;;;;;;;;;;;;;8.96;72.55;99583.72;7369359;19;19931;-55
2022/01/03 08:53:41;;;;;;;;;;;;;;;8.96;72.58;99583.72;7358358;19;19919;-52
2022/01/03 08:56:06;;;;;;;;;;;;;;;8.99;72.43;99595.81;7368750;19;20793;-54
2022/01/03 08:58:32;;;;;;;;;;;;;;;9.01;72.66;99592.25;7354732;19;19926;-54
2022/01/03 09:00:57;;;;;;;;;;;;;;;9.04;72.36;99592.16;7366458;19;19934;-52
2022/01/03 09:03:22;;;;;;;;;;;;;;;9.08;72.27;99582.47;7362590;19;19982;-52
2022/01/03 09:05:49;;;;;;;;;;;;;;;9.10;72.37;99591.94;7365783;19;19922;-50
2022/01/03 09:08:16;;;;;;;;;;;;;;;9.13;72.40;99582.31;7350455;19;19930;-56
2022/01/03 09:10:42;;;;;;;;;;;;;;;9.17;72.54;99599.53;7360768;19;19919;-52
2022/01/03 09:13:07;;;;;;;;;;;;;;;9.20;72.46;99587.25;7353239;19;19918;-51
2022/01/03 09:15:33;;;;;;;;;;;;;;;9.24;72.68;99596.66;7363731;19;19948;-50
2022/01/03 09:17:58;;;;;;;;;;;;;;;9.28;72.74;99593.06;7360943;19;19944;-54
2022/01/03 09:20:23;;;;;;;;;;;;;;;9.32;72.62;99596.38;7365320;19;19923;-53
2022/01/03 09:22:52;;;;;;;;;;;;;;;9.34;72.36;99595.44;7363367;19;20309;-55
2022/01/03 09:30:31;;;;;;;;;;;;;;;9.40;72.35;99604.78;7355399;19;20001;-52
2022/01/03 09:32:56;;;;;;;;;;;;;;;9.42;72.69;99592.56;7352740;19;19919;-52
2022/01/03 09:35:22;;;;;;;;;;;;;;;9.44;72.38;99589.91;7364392;19;19931;-54
2022/01/03 09:37:48;;;;;;;;;;;;;;;9.46;72.36;99594.16;7366119;19;19907;-49
2022/01/03 09:40:14;;;;;;;;;;;;;;;9.51;72.65;99597.44;7356447;19;20772;-53
2022/01/03 09:42:39;;;;;;;;;;;;;;;9.56;72.58;99600.72;7359152;19;19922;-56
2022/01/03 09:45:06;;;;;;;;;;;;;;;9.60;72.79;99591.91;7359467;19;19919;-49
2022/01/03 09:47:32;;;;;;;;;;;;;;;9.65;72.13;99598.72;7359569;19;19918;-53
2022/01/03 09:49:58;;;;;;;;;;;;;;;9.66;72.46;99600.41;7347617;19;19918;-52
2022/01/03 09:52:24;;;;;;;;;;;;;;;9.69;72.27;99595.09;7365183;19;19974;-53
2022/01/03 09:54:50;;;;;;;;;;;;;;;9.72;72.00;99595.81;7356428;19;19943;-52
2022/01/03 09:57:19;;;;;;;;;;;;;;;9.77;72.27;99593.03;7354685;19;19914;-52
2022/01/03 09:59:44;;;;;;;;;;;;;;;9.84;72.23;99584.09;7358567;19;19923;-52
2022/01/03 10:02:12;;;;;;;;;;;;;;;9.93;71.87;99567.22;7355373;19;19914;-54
2022/01/03 10:04:37;;;;;;;;;;;;;;;9.99;71.69;99567.00;7348681;19;20330;-54
2022/01/03 10:07:03;;;;;;;;;;;;;;;10.05;71.91;99572.84;7353733;19;19919;-53
2022/01/03 10:09:29;;;;;;;;;;;;;;;10.14;71.98;99575.09;7353040;19;19930;-52
2022/01/03 10:11:54;;;;;;;;;;;;;;;10.26;72.01;99557.28;7349922;19;19918;-55
2022/01/03 10:14:19;;;;;;;;;;;;;;;10.37;71.91;99568.13;7350222;19;19934;-56
2022/01/03 10:16:45;;;;;;;;;;;;;;;10.53;72.08;99558.78;7346205;19;20818;-54
2022/01/03 10:19:11;;;;;;;;;;;;;;;10.73;71.77;99559.72;7355767;19;19933;-53
2022/01/03 10:21:39;;;;;;;;;;;;;;;10.93;71.95;99554.50;7353611;19;20014;-54
2022/01/03 10:24:05;;;;;;;;;;;;;;;11.14;71.74;99571.03;7349106;19;19915;-57
2022/01/03 10:26:30;;;;;;;;;;;;;;;11.36;71.17;99560.50;7360749;19;20386;-55
2022/01/03 10:29:14;;;;;;;;;;;;;;;11.50;70.48;99573.78;7353495;19;20546;-55
2022/01/03 10:31:40;;;;;;;;;;;;;;;11.64;70.43;99586.25;7358945;19;20547;-53
2022/01/03 10:34:07;;;;;;;;;;;;;;;11.80;70.49;99578.56;7351701;19;19990;-56
2022/01/03 10:36:33;;;;;;;;;;;;;;;11.97;70.48;99583.91;7357791;19;20721;-57
2022/01/03 10:39:10;;;;;;;;;;;;;;;12.16;70.05;99579.50;7359102;19;19914;-57
2022/01/03 10:41:36;;;;;;;;;;;;;;;12.34;69.42;99579.56;7358174;19;19919;-56
2022/01/03 10:44:01;;;;;;;;;;;;;;;12.51;69.06;99587.44;7360105;19;20241;-57
2022/01/03 10:46:27;;;;;;;;;;;;;;;12.65;68.61;99574.53;7358114;19;19930;-55
2022/01/03 10:48:56;;;;;;;;;;;;;;;12.84;68.33;99581.50;7354638;19;19986;-56
2022/01/03 10:51:26;;;;;;;;;;;;;;;12.96;67.61;99575.63;7361867;19;19921;-57
2022/01/03 10:53:53;;;;;;;;;;;;;;;13.08;67.64;99588.13;7348046;19;19930;-58
2022/01/03 10:56:30;;;;;;;;;;;;;;;13.20;66.69;99586.63;7363038;19;20645;-57
2022/01/03 10:58:56;;;;;;;;;;;;;;;13.29;65.57;99577.50;7356502;19;19922;-55
2022/01/03 11:01:23;;;;;;;;;;;;;;;13.34;65.03;99572.84;7361623;19;19970;-56
2022/01/03 11:03:49;;;;;;;;;;;;;;;13.34;64.09;99585.97;7364483;19;20378;-56
2022/01/03 11:11:34;;;;;;;;;;;;;;;13.14;63.59;99558.13;7363761;19;19929;-56
2022/01/03 11:13:59;;;;;;;;;;;;;;;13.10;63.57;99567.91;7365290;19;19986;-58
2022/01/03 11:16:30;;;;;;;;;;;;;;;13.10;63.45;99578.41;7363796;19;19983;-59
2022/01/03 11:18:55;;;;;;;;;;;;;;;13.11;63.88;99553.88;7364450;19;20367;-58
2022/01/03 11:21:24;;;;;;;;;;;;;;;13.16;64.12;99572.84;7370124;19;19921;-55
2022/01/03 11:23:58;;;;;;;;;;;;;;;13.23;64.05;99569.03;7368711;19;19922;-55
2022/01/03 11:26:24;;;;;;;;;;;;;;;13.40;64.04;99590.88;7366708;19;20354;-55
2022/01/03 11:28:50;;;;;;;;;;;;;;;13.51;64.12;99564.94;7364830;19;19914;-57
2022/01/03 11:31:16;;;;;;;;;;;;;;;13.63;63.87;99561.66;7370274;19;20487;-55
2022/01/03 11:33:41;;;;;;;;;;;;;;;13.80;62.26;99563.41;7357940;19;19948;-56
2022/01/03 11:36:08;;;;;;;;;;;;;;;13.91;62.22;99565.44;7366956;19;19914;-57
2022/01/03 11:38:37;;;;;;;;;;;;;;;13.97;61.69;99568.56;7362918;19;19915;-58
2022/01/03 11:41:08;;;;;;;;;;;;;;;14.05;61.75;99559.44;7368844;19;19923;-53
2022/01/03 11:43:34;;;;;;;;;;;;;;;14.13;61.37;99555.44;7367839;19;19922;-54
2022/01/03 11:45:59;;;;;;;;;;;;;;;14.22;61.37;99549.69;7369189;19;19914;-55
2022/01/03 11:48:31;;;;;;;;;;;;;;;14.34;60.85;99555.16;7360132;19;19923;-58
2022/01/03 11:50:57;;;;;;;;;;;;;;;14.43;61.08;99537.09;7366051;19;20008;-57
2022/01/03 11:53:23;;;;;;;;;;;;;;;14.46;60.99;99525.59;7363502;19;20025;-55
2022/01/03 11:55:59;;;;;;;;;;;;;;;14.45;60.70;99514.25;7361170;19;19918;-58
2022/01/03 11:58:43;;;;;;;;;;;;;;;14.38;59.81;99512.03;7353972;19;19958;-56
2022/01/03 12:03:54;;;;;;;;;;;;;;;14.17;59.48;99504.44;7364512;19;19933;-57
2022/01/03 12:06:24;;;;;;;;;;;;;;;14.06;59.66;99512.09;7364963;19;19942;-56
2022/01/03 12:08:54;;;;;;;;;;;;;;;13.96;59.72;99508.28;7362218;19;19918;-51
2022/01/03 12:11:20;;;;;;;;;;;;;;;13.93;60.78;99503.19;7360526;19;20017;-57
2022/01/03 12:13:49;;;;;;;;;;;;;;;13.99;60.84;99502.88;7358962;19;19918;-56
2022/01/03 12:16:15;;;;;;;;;;;;;;;14.15;61.17;99511.56;7365189;19;19947;-53
2022/01/03 12:18:57;;;;;;;;;;;;;;;14.31;61.25;99502.84;7355746;19;19922;-56
2022/01/03 12:21:42;;;;;;;;;;;;;;;14.50;61.20;99521.91;7366021;19;19927;-55
2022/01/03 12:24:27;;;;;;;;;;;;;;;14.65;60.73;99512.25;7362105;19;19918;-58
2022/01/03 12:27:11;;;;;;;;;;;;;;;14.68;60.47;99505.03;7364971;19;19935;-57
2022/01/03 12:29:48;;;;;;;;;;;;;;;14.74;60.35;99515.19;7364710;19;19978;-55
2022/01/03 12:32:14;;;;;;;;;;;;;;;14.79;60.11;99510.50;7367043;19;19934;-57
2022/01/03 12:34:39;;;;;;;;;;;;;;;14.79;59.21;99515.75;7360442;19;19978;-58
2022/01/03 12:37:21;;;;;;;;;;;;;;;14.69;59.28;99527.75;7365545;19;19943;-56
2022/01/03 12:40:02;;;;;;;;;;;;;;;14.60;59.64;99519.56;7360778;19;19919;-56
2022/01/03 12:42:49;;;;;;;;;;;;;;;14.55;59.43;99514.59;7365324;19;20331;-54
2022/01/03 12:45:39;;;;;;;;;;;;;;;14.52;59.37;99514.75;7364465;19;20271;-57
2022/01/03 12:48:10;;;;;;;;;;;;;;;14.47;59.56;99519.41;7360303;19;19918;-57
2022/01/03 12:50:37;;;;;;;;;;;;;;;14.39;59.41;99518.97;7361415;19;19918;-56
2022/01/03 12:53:03;;;;;;;;;;;;;;;14.26;59.16;99514.44;7364330;19;24933;-53
2022/01/03 12:55:37;;;;;;;;;;;;;;;14.10;59.08;99518.88;7361645;19;19939;-53
2022/01/03 12:58:02;;;;;;;;;;;;;;;13.97;59.28;99509.97;7365865;19;19922;-58
2022/01/03 13:00:38;;;;;;;;;;;;;;;13.89;59.55;99501.66;7359438;19;19948;-57
2022/01/03 13:03:22;;;;;;;;;;;;;;;13.89;60.41;99499.03;7365031;19;19929;-54
2022/01/03 13:06:05;;;;;;;;;;;;;;;13.98;60.76;99488.88;7361342;19;20238;-55
2022/01/03 13:08:39;;;;;;;;;;;;;;;14.16;60.21;99502.75;7366094;19;19974;-54
2022/01/03 13:11:06;;;;;;;;;;;;;;;14.31;60.14;99484.44;7359089;19;19935;-58
2022/01/03 13:13:32;;;;;;;;;;;;;;;14.43;60.35;99499.50;7366603;19;19939;-57
2022/01/03 13:15:57;;;;;;;;;;;;;;;14.52;59.54;99484.06;7355370;19;19950;-56